createdAt,value
2023-02-14T00:02:36.606Z,4.15
2023-02-14T00:07:38.229Z,2.38
2023-02-14T00:12:39.737Z,2.67
2023-02-14T00:17:41.188Z,3.40
2023-02-14T00:22:42.675Z,3.75
2023-02-14T00:27:44.383Z,2.85
2023-02-14T00:32:45.872Z,6.53
2023-02-14T00:37:47.394Z,5.53
2023-02-14T00:42:48.912Z,2.00
2023-02-14T00:47:50.446Z,9.70
2023-02-14T00:52:51.976Z,3.60
2023-02-14T00:57:53.452Z,4.00
2023-02-14T01:02:55.053Z,6.30
2023-02-14T01:07:56.598Z,3.13
2023-02-14T01:12:58.391Z,2.45
2023-02-14T01:18:00.602Z,5.53
2023-02-14T01:23:02.715Z,3.60
2023-02-14T01:28:05.035Z,2.88
2023-02-14T01:33:06.597Z,4.82
2023-02-14T01:38:08.159Z,3.35
2023-02-14T01:43:16.062Z,3.55
2023-02-14T01:48:21.177Z,3.28
2023-02-14T01:53:27.336Z,2.50
2023-02-14T01:58:31.407Z,3.25
2023-02-14T02:03:37.088Z,6.07
2023-02-14T02:08:48.757Z,5.15
2023-02-14T02:13:50.385Z,4.75
2023-02-14T02:19:12.037Z,4.20
2023-02-14T02:24:25.667Z,7.05
2023-02-14T02:29:38.773Z,8.75
2023-02-14T02:35:17.807Z,4.85
2023-02-14T02:40:47.302Z,8.18
2023-02-14T02:46:16.715Z,8.20
2023-02-14T02:51:28.010Z,4.10
2023-02-14T02:56:38.002Z,8.77
2023-02-14T03:01:41.208Z,5.28
2023-02-14T03:06:45.284Z,9.02
2023-02-14T03:11:54.475Z,27.55
2023-02-14T03:17:07.257Z,7.18
2023-02-14T03:22:21.008Z,19.67
2023-02-14T03:27:38.960Z,7.05
2023-02-14T03:33:01.687Z,4.13
2023-02-14T03:38:41.821Z,23.38
2023-02-14T03:43:48.454Z,13.60
2023-02-14T03:48:52.688Z,20.23
2023-02-14T03:53:58.063Z,9.38
2023-02-14T03:59:07.150Z,16.83
2023-02-14T04:04:09.720Z,8.30
2023-02-14T04:09:11.232Z,11.13
2023-02-14T04:14:12.701Z,21.90
2023-02-14T04:19:14.218Z,12.75
2023-02-14T04:24:15.800Z,27.83
2023-02-14T04:29:17.291Z,22.67
2023-02-14T04:34:18.796Z,18.10
2023-02-14T04:39:20.432Z,8.27
2023-02-14T04:44:21.954Z,9.45
2023-02-14T04:49:23.461Z,32.83
2023-02-14T04:54:25.374Z,27.85
2023-02-14T04:59:26.881Z,7.97
2023-02-14T05:04:28.345Z,20.15
2023-02-14T05:09:29.895Z,7.40
2023-02-14T05:14:31.299Z,11.15
2023-02-14T05:19:32.691Z,30.63
2023-02-14T05:24:34.158Z,10.93
2023-02-14T05:29:35.644Z,19.92
2023-02-14T05:34:37.164Z,9.95
2023-02-14T05:39:38.650Z,14.38
2023-02-14T05:44:40.143Z,15.40
2023-02-14T05:49:41.638Z,28.08
2023-02-14T05:54:43.124Z,11.45
2023-02-14T05:59:44.578Z,18.27
2023-02-14T06:04:46.232Z,20.20
2023-02-14T06:09:47.776Z,14.48
2023-02-14T06:14:49.341Z,12.48
2023-02-14T06:19:50.953Z,14.43
2023-02-14T06:24:52.405Z,15.15
2023-02-14T06:29:53.919Z,17.35
2023-02-14T06:34:55.463Z,16.52
2023-02-14T06:39:56.948Z,13.65
2023-02-14T06:44:58.553Z,12.38
2023-02-14T06:50:00.057Z,18.63
2023-02-14T06:55:01.524Z,15.25
2023-02-14T07:00:03.450Z,11.82
2023-02-14T07:05:05.183Z,21.60
2023-02-14T07:10:07.186Z,15.13
2023-02-14T07:15:11.520Z,22.27
2023-02-14T07:20:13.574Z,22.67
2023-02-14T07:25:15.092Z,20.67
2023-02-14T07:30:16.773Z,18.70
2023-02-14T07:35:18.546Z,26.67
2023-02-14T07:40:20.427Z,23.50
2023-02-14T07:45:22.694Z,20.27
2023-02-14T07:50:24.314Z,23.70
2023-02-14T07:55:25.847Z,21.50
2023-02-14T08:00:27.855Z,21.90
2023-02-14T08:05:29.668Z,20.00
2023-02-14T08:10:31.376Z,21.67
2023-02-14T08:15:35.140Z,22.63
2023-02-14T08:20:36.691Z,21.98
2023-02-14T08:25:38.449Z,22.88
2023-02-14T08:30:40.621Z,22.70
2023-02-14T08:35:42.375Z,25.63
2023-02-14T08:40:44.688Z,21.77
2023-02-14T08:45:46.294Z,20.58
2023-02-14T08:50:47.797Z,23.52
2023-02-14T08:55:49.542Z,23.77
2023-02-14T09:00:51.182Z,20.73
2023-02-14T09:05:52.726Z,17.58
2023-02-14T09:10:54.271Z,21.67
2023-02-14T09:15:55.814Z,26.20
2023-02-14T09:20:57.959Z,21.90
2023-02-14T09:26:01.082Z,21.05
2023-02-14T09:31:24.370Z,23.40
2023-02-14T09:36:25.995Z,27.83
2023-02-14T09:41:30.474Z,27.85
2023-02-14T09:46:41.664Z,19.60
2023-02-14T09:51:51.390Z,22.02
2023-02-14T09:57:13.431Z,23.45
2023-02-14T10:02:31.979Z,20.40
2023-02-14T10:07:43.646Z,18.40
2023-02-14T10:12:51.549Z,27.67
2023-02-14T10:18:01.873Z,24.63
2023-02-14T10:23:15.018Z,22.92
2023-02-14T10:28:23.685Z,21.67
2023-02-14T10:33:30.750Z,18.55
2023-02-14T10:39:07.814Z,20.63
2023-02-14T10:44:18.107Z,21.02
2023-02-14T10:49:30.532Z,19.25
2023-02-14T10:54:38.250Z,24.25
2023-02-14T10:59:50.923Z,20.42
2023-02-14T11:04:52.842Z,17.48
2023-02-14T11:09:54.391Z,20.83
2023-02-14T11:15:09.118Z,17.25
2023-02-14T11:20:19.843Z,20.10
2023-02-14T11:25:27.085Z,17.15
2023-02-14T11:30:36.366Z,22.67
2023-02-14T11:35:38.776Z,26.98
2023-02-14T11:40:42.072Z,20.38
2023-02-14T11:45:49.087Z,21.23
2023-02-14T11:51:03.724Z,22.13
2023-02-14T11:56:05.704Z,22.48
2023-02-14T12:01:20.893Z,19.85
2023-02-14T12:06:31.023Z,19.90
2023-02-14T12:11:32.477Z,25.73
2023-02-14T12:16:49.046Z,18.05
2023-02-14T12:22:01.086Z,20.48
2023-02-14T12:27:13.479Z,23.40
2023-02-14T12:32:24.628Z,24.10
2023-02-14T12:37:42.519Z,19.23
2023-02-14T12:43:03.324Z,21.10
2023-02-14T12:48:17.002Z,18.77
2023-02-14T12:53:28.731Z,20.85
2023-02-14T12:58:44.823Z,27.50
2023-02-14T13:04:05.047Z,18.27
2023-02-14T13:09:11.774Z,24.20
2023-02-14T13:14:43.750Z,22.73
2023-02-14T13:20:05.866Z,23.13
2023-02-14T13:25:24.140Z,26.15
2023-02-14T13:30:31.003Z,24.75
2023-02-14T13:35:34.121Z,22.33
2023-02-14T13:40:36.454Z,30.50
2023-02-14T13:45:40.693Z,29.63
2023-02-14T13:50:58.645Z,23.95
2023-02-14T13:56:01.103Z,19.92
2023-02-14T14:01:33.411Z,25.75
2023-02-14T14:07:02.848Z,26.65
2023-02-14T14:12:04.435Z,22.00
2023-02-14T14:17:19.950Z,21.75
2023-02-14T14:22:21.762Z,28.17
2023-02-14T14:27:31.825Z,26.65
2023-02-14T14:32:36.513Z,29.70
2023-02-14T14:37:49.085Z,26.70
2023-02-14T14:42:51.650Z,23.17
2023-02-14T14:47:56.284Z,25.40
2023-02-14T14:53:05.600Z,31.45
2023-02-14T14:58:36.295Z,18.80
2023-02-14T15:03:38.244Z,38.90
2023-02-14T15:08:39.733Z,25.73
2023-02-14T15:13:50.998Z,27.80
2023-02-14T15:18:57.721Z,28.40
2023-02-14T15:24:01.444Z,33.13
2023-02-14T15:29:06.192Z,30.88
2023-02-14T15:34:10.022Z,31.50
2023-02-14T15:39:13.027Z,27.05
2023-02-14T15:44:23.388Z,35.53
2023-02-14T15:49:33.248Z,26.90
2023-02-14T15:54:38.969Z,30.85
2023-02-14T15:59:42.440Z,34.72
2023-02-14T16:04:44.615Z,32.53
2023-02-14T16:09:46.732Z,33.30
2023-02-14T16:15:01.876Z,31.05
2023-02-14T16:20:26.094Z,30.03
2023-02-14T16:25:27.572Z,34.38
2023-02-14T16:30:29.139Z,26.45
2023-02-14T16:35:31.095Z,24.15
2023-02-14T16:40:32.628Z,31.98
2023-02-14T16:45:34.015Z,28.25
2023-02-14T16:50:37.894Z,29.55
2023-02-14T16:55:40.272Z,39.55
2023-02-14T17:00:41.672Z,24.65
2023-02-14T17:05:43.565Z,30.70
2023-02-14T17:10:47.646Z,25.55
2023-02-14T17:15:50.103Z,30.48
2023-02-14T17:20:51.712Z,28.55
2023-02-14T17:25:53.214Z,29.02
2023-02-14T17:30:54.843Z,33.17
2023-02-14T17:35:56.540Z,29.88
2023-02-14T17:40:58.350Z,31.65
2023-02-14T17:46:04.415Z,33.72
2023-02-14T17:51:08.361Z,30.42
2023-02-14T17:56:15.410Z,30.52
2023-02-14T18:01:25.182Z,34.03
2023-02-14T18:06:26.791Z,32.88
2023-02-14T18:11:30.897Z,26.75
2023-02-14T18:16:32.462Z,26.10
2023-02-14T18:21:35.900Z,31.15
2023-02-14T18:26:39.678Z,29.67
2023-02-14T18:31:43.177Z,28.90
2023-02-14T18:36:44.670Z,32.10
2023-02-14T18:41:46.134Z,29.13
2023-02-14T18:46:47.585Z,26.67
2023-02-14T18:51:49.093Z,30.20
2023-02-14T18:56:50.609Z,26.35
2023-02-14T19:01:52.218Z,25.00
2023-02-14T19:06:53.687Z,28.90
2023-02-14T19:11:55.475Z,26.88
2023-02-14T19:16:56.927Z,20.00
2023-02-14T19:21:59.577Z,29.20
2023-02-14T19:27:01.143Z,29.23
2023-02-14T19:32:02.730Z,28.88
2023-02-14T19:37:04.277Z,26.85
2023-02-14T19:42:05.861Z,22.73
2023-02-14T19:47:23.396Z,22.73
2023-02-14T19:52:28.749Z,20.73
2023-02-14T19:57:30.239Z,25.73
2023-02-14T20:02:31.732Z,23.27
2023-02-14T20:07:33.330Z,27.38
2023-02-14T20:12:35.046Z,24.70
2023-02-14T20:17:36.567Z,25.20
2023-02-14T20:22:38.145Z,32.42
2023-02-14T20:27:39.701Z,23.83
2023-02-14T20:32:41.437Z,28.52
2023-02-14T20:37:43.021Z,20.50
2023-02-14T20:42:44.512Z,25.65
2023-02-14T20:47:48.961Z,22.38
2023-02-14T20:52:50.628Z,26.40
2023-02-14T20:57:52.088Z,27.42
2023-02-14T21:02:53.835Z,26.58
2023-02-14T21:07:55.453Z,21.60
2023-02-14T21:12:56.905Z,29.27
2023-02-14T21:17:58.459Z,27.50
2023-02-14T21:22:59.913Z,28.42
2023-02-14T21:28:01.388Z,25.35
2023-02-14T21:33:03.011Z,28.88
2023-02-14T21:38:04.586Z,24.67
2023-02-14T21:43:06.074Z,26.77
2023-02-14T21:48:07.744Z,25.00
2023-02-14T21:53:09.308Z,19.58
2023-02-14T21:58:10.906Z,28.30
2023-02-14T22:03:13.251Z,21.75
2023-02-14T22:08:14.990Z,24.10
2023-02-14T22:13:16.667Z,23.85
2023-02-14T22:18:18.482Z,26.80
2023-02-14T22:23:20.076Z,24.95
2023-02-14T22:28:21.582Z,21.35
2023-02-14T22:33:23.119Z,19.58
2023-02-14T22:38:25.237Z,20.23
2023-02-14T22:43:29.778Z,26.65
2023-02-14T22:48:33.473Z,28.15
2023-02-14T22:53:35.122Z,24.67
2023-02-14T22:58:37.079Z,30.67
2023-02-14T23:03:38.607Z,25.55
2023-02-14T23:08:44.939Z,27.05
2023-02-14T23:13:46.495Z,23.67
2023-02-14T23:18:48.074Z,22.15
2023-02-14T23:23:52.461Z,27.30
2023-02-14T23:28:54.126Z,25.33
2023-02-14T23:33:55.840Z,19.40
2023-02-14T23:38:57.698Z,24.10
2023-02-14T23:43:59.171Z,27.58
2023-02-14T23:49:00.810Z,27.48
2023-02-14T23:54:02.645Z,29.25
2023-02-14T23:59:05.700Z,22.10
